createdAt,value
2022-08-14T00:01:54.970Z,22.17
2022-08-14T00:06:25.356Z,21.13
2022-08-14T00:10:52.071Z,21.35
2022-08-14T00:15:25.795Z,21.15
2022-08-14T00:19:46.948Z,22.60
2022-08-14T00:24:06.586Z,23.02
2022-08-14T00:28:29.160Z,20.17
2022-08-14T00:32:56.182Z,20.60
2022-08-14T00:37:13.906Z,20.92
2022-08-14T00:41:33.324Z,21.17
2022-08-14T00:45:52.592Z,21.83
2022-08-14T00:50:17.797Z,21.83
2022-08-14T00:54:37.480Z,21.48
2022-08-14T00:58:58.618Z,22.23
2022-08-14T01:03:17.260Z,23.42
2022-08-14T01:07:47.341Z,23.10
2022-08-14T01:12:12.241Z,21.85
2022-08-14T01:16:31.495Z,21.47
2022-08-14T01:21:04.287Z,20.30
2022-08-14T01:25:22.703Z,20.58
2022-08-14T01:29:58.799Z,21.08
2022-08-14T01:35:19.760Z,20.83
2022-08-14T01:38:58.017Z,21.38
2022-08-14T01:43:18.724Z,21.25
2022-08-14T01:47:39.823Z,21.95
2022-08-14T01:51:57.071Z,21.85
2022-08-14T01:56:21.055Z,22.48
2022-08-14T02:00:39.496Z,22.15
2022-08-14T02:04:57.727Z,23.70
2022-08-14T02:09:19.309Z,25.40
2022-08-14T02:13:43.110Z,25.77
2022-08-14T02:18:02.222Z,25.73
2022-08-14T02:22:32.642Z,27.58
2022-08-14T02:28:19.282Z,30.52
2022-08-14T02:31:42.412Z,27.52
2022-08-14T02:36:44.146Z,31.73
2022-08-14T02:44:59.455Z,29.75
2022-08-14T02:49:17.945Z,37.33
2022-08-14T02:53:45.689Z,30.83
2022-08-14T02:58:05.972Z,28.75
2022-08-14T03:02:49.058Z,34.33
2022-08-14T03:07:07.297Z,28.38
2022-08-14T03:11:26.357Z,25.90
2022-08-14T03:15:55.707Z,27.33
2022-08-14T03:20:14.330Z,30.13
2022-08-14T03:24:31.959Z,29.80
2022-08-14T03:28:52.185Z,29.70
2022-08-14T03:33:12.299Z,26.70
2022-08-14T03:39:10.824Z,28.25
2022-08-14T03:42:06.789Z,26.77
2022-08-14T03:46:54.763Z,35.63
2022-08-14T03:51:13.980Z,26.00
2022-08-14T03:55:31.972Z,33.90
2022-08-14T03:59:49.157Z,29.52
2022-08-14T04:04:07.951Z,27.55
2022-08-14T04:12:51.774Z,30.05
2022-08-14T04:17:10.128Z,27.00
2022-08-14T04:21:29.431Z,27.52
2022-08-14T04:25:48.081Z,25.88
2022-08-14T04:30:06.497Z,25.73
2022-08-14T04:34:27.224Z,28.63
2022-08-14T04:39:04.037Z,25.45
2022-08-14T04:43:39.326Z,29.98
2022-08-14T04:48:36.637Z,28.13
2022-08-14T04:52:53.813Z,28.33
2022-08-14T05:01:33.821Z,27.58
2022-08-14T05:06:00.295Z,26.83
2022-08-14T05:10:22.094Z,26.10
2022-08-14T05:14:46.196Z,27.52
2022-08-14T05:19:18.018Z,27.52
2022-08-14T05:23:44.771Z,25.42
2022-08-14T05:28:16.235Z,26.83
2022-08-14T05:32:34.366Z,28.90
2022-08-14T05:37:02.093Z,28.45
2022-08-14T05:41:20.402Z,35.33
2022-08-14T05:45:39.966Z,31.48
2022-08-14T05:49:58.403Z,32.40
2022-08-14T05:54:26.620Z,36.55
2022-08-14T05:58:45.582Z,32.22
2022-08-14T06:03:06.988Z,29.70
2022-08-14T06:07:24.334Z,27.38
2022-08-14T06:11:41.848Z,30.23
2022-08-14T06:16:00.644Z,26.73
2022-08-14T06:20:19.041Z,25.50
2022-08-14T06:24:39.287Z,25.15
2022-08-14T06:29:02.183Z,23.83
2022-08-14T06:33:20.455Z,24.77
2022-08-14T06:37:59.089Z,24.38
2022-08-14T06:42:31.361Z,23.13
2022-08-14T06:46:50.349Z,22.52
2022-08-14T06:51:07.560Z,23.05
2022-08-14T06:55:28.156Z,20.88
2022-08-14T06:59:46.502Z,21.65
2022-08-14T07:04:26.798Z,20.25
2022-08-14T07:08:44.934Z,20.10
2022-08-14T07:13:08.812Z,22.95
2022-08-14T07:17:26.922Z,21.13
2022-08-14T07:21:44.878Z,21.33
2022-08-14T07:26:04.211Z,19.70
2022-08-14T07:34:52.647Z,20.10
2022-08-14T07:39:12.416Z,18.35
2022-08-14T07:43:30.636Z,18.02
2022-08-14T07:47:47.882Z,17.70
2022-08-14T07:52:05.404Z,17.00
2022-08-14T07:56:43.981Z,17.83
2022-08-14T08:01:02.821Z,17.23
2022-08-14T08:05:24.304Z,15.52
2022-08-14T08:09:47.984Z,14.20
2022-08-14T08:18:36.056Z,11.30
2022-08-14T08:27:23.790Z,11.05
2022-08-14T08:31:51.114Z,11.65
2022-08-14T08:36:18.817Z,11.95
2022-08-14T08:40:57.228Z,11.07
2022-08-14T08:45:18.769Z,11.40
2022-08-14T08:49:43.072Z,11.55
2022-08-14T08:54:14.563Z,10.65
2022-08-14T08:58:38.056Z,10.25
2022-08-14T09:03:06.864Z,10.65
2022-08-14T09:07:28.104Z,10.45
2022-08-14T09:11:45.912Z,11.98
2022-08-14T09:16:18.538Z,9.52
2022-08-14T09:20:39.703Z,10.05
2022-08-14T09:25:00.541Z,9.45
2022-08-14T09:33:56.456Z,8.02
2022-08-14T09:38:42.348Z,8.45
2022-08-14T09:43:25.077Z,7.85
2022-08-14T09:47:55.408Z,8.07
2022-08-14T09:52:33.594Z,8.35
2022-08-14T09:56:57.064Z,7.72
2022-08-14T10:01:18.675Z,7.95
2022-08-14T10:05:39.397Z,7.57
2022-08-14T10:09:59.792Z,7.35
2022-08-14T10:14:35.269Z,8.05
2022-08-14T10:19:09.357Z,7.60
2022-08-14T10:23:39.130Z,7.05
2022-08-14T10:27:58.857Z,9.88
2022-08-14T10:32:18.154Z,5.68
2022-08-14T10:37:02.194Z,5.38
2022-08-14T10:41:20.107Z,5.53
2022-08-14T10:45:42.109Z,5.73
2022-08-14T10:50:12.043Z,5.72
2022-08-14T10:54:42.019Z,6.43
2022-08-14T10:59:08.120Z,6.87
2022-08-14T11:03:35.688Z,9.05
2022-08-14T11:08:09.025Z,5.47
2022-08-14T11:12:47.809Z,5.82
2022-08-14T11:17:05.706Z,5.72
2022-08-14T11:21:30.331Z,5.53
2022-08-14T11:25:53.257Z,6.00
2022-08-14T11:30:50.743Z,5.93
2022-08-14T11:34:53.393Z,5.63
2022-08-14T11:39:19.076Z,5.75
2022-08-14T11:43:55.876Z,7.45
2022-08-14T11:49:03.993Z,5.38
2022-08-14T11:57:19.986Z,5.43
2022-08-14T12:01:41.092Z,6.20
2022-08-14T12:06:06.922Z,6.00
2022-08-14T12:10:44.930Z,6.10
2022-08-14T12:15:05.413Z,8.15
2022-08-14T12:19:25.412Z,4.22
2022-08-14T12:23:43.175Z,5.75
2022-08-14T12:32:22.966Z,4.55
2022-08-14T12:36:40.180Z,5.65
2022-08-14T12:41:02.235Z,5.57
2022-08-14T12:45:33.845Z,5.38
2022-08-14T12:49:54.193Z,5.85
2022-08-14T12:54:28.003Z,5.07
2022-08-14T12:58:57.555Z,4.80
2022-08-14T13:03:28.337Z,4.40
2022-08-14T13:07:45.698Z,5.53
2022-08-14T13:12:32.420Z,4.63
2022-08-14T13:16:43.783Z,4.72
2022-08-14T13:21:02.763Z,4.55
2022-08-14T13:25:24.432Z,4.20
2022-08-14T13:29:44.681Z,5.30
2022-08-14T13:34:05.763Z,5.00
2022-08-14T13:38:25.434Z,4.18
2022-08-14T13:42:48.332Z,4.45
2022-08-14T13:47:12.105Z,4.90
2022-08-14T13:51:36.278Z,5.90
2022-08-14T13:55:56.552Z,6.60
2022-08-14T14:00:18.008Z,6.68
2022-08-14T14:04:42.431Z,6.13
2022-08-14T14:09:06.027Z,5.38
2022-08-14T14:13:30.573Z,4.88
2022-08-14T14:17:49.806Z,5.22
2022-08-14T14:22:07.795Z,7.57
2022-08-14T14:26:28.383Z,6.22
2022-08-14T14:30:53.464Z,6.63
2022-08-14T14:35:14.489Z,5.20
2022-08-14T14:40:50.383Z,5.43
2022-08-14T14:44:15.867Z,5.65
2022-08-14T14:48:33.543Z,6.28
2022-08-14T14:52:51.288Z,8.33
2022-08-14T14:57:13.865Z,5.68
2022-08-14T15:01:38.278Z,5.85
2022-08-14T15:05:57.437Z,5.70
2022-08-14T15:14:56.202Z,5.78
2022-08-14T15:19:15.018Z,7.15
2022-08-14T15:23:44.008Z,8.55
2022-08-14T15:28:02.968Z,6.47
2022-08-14T15:32:23.427Z,6.40
2022-08-14T15:41:02.201Z,6.75
2022-08-14T15:45:25.624Z,6.90
2022-08-14T15:49:44.430Z,10.82
2022-08-14T15:54:03.080Z,7.47
2022-08-14T15:58:28.491Z,9.27
2022-08-14T16:02:45.926Z,6.03
2022-08-14T16:07:03.290Z,6.30
2022-08-14T16:11:24.858Z,6.10
2022-08-14T16:15:45.367Z,6.22
2022-08-14T16:20:10.927Z,6.10
2022-08-14T16:24:33.153Z,7.50
2022-08-14T16:28:52.845Z,6.00
2022-08-14T16:33:11.385Z,6.13
2022-08-14T16:37:48.543Z,6.70
2022-08-14T16:42:38.272Z,6.32
2022-08-14T16:46:47.565Z,6.20
2022-08-14T16:51:06.914Z,6.07
2022-08-14T16:55:30.345Z,8.18
2022-08-14T16:59:52.727Z,6.30
2022-08-14T17:04:25.023Z,8.30
2022-08-14T17:08:46.935Z,6.07
2022-08-14T17:13:47.582Z,6.38
2022-08-14T17:17:59.844Z,6.95
2022-08-14T17:22:17.252Z,6.45
2022-08-14T17:26:54.997Z,8.13
2022-08-14T17:31:13.091Z,6.63
2022-08-14T17:35:58.837Z,5.97
2022-08-14T17:40:19.538Z,7.53
2022-08-14T17:44:45.385Z,6.30
2022-08-14T17:49:18.037Z,9.48
2022-08-14T17:53:36.664Z,6.60
2022-08-14T17:58:21.161Z,7.18
2022-08-14T18:02:51.039Z,8.07
2022-08-14T18:07:49.335Z,7.88
2022-08-14T18:11:53.143Z,6.43
2022-08-14T18:16:20.364Z,6.47
2022-08-14T18:21:39.921Z,6.32
2022-08-14T18:25:22.698Z,6.53
2022-08-14T18:29:55.228Z,8.27
2022-08-14T18:34:31.124Z,7.30
2022-08-14T18:39:28.239Z,10.35
2022-08-14T18:43:59.689Z,7.95
2022-08-14T18:48:19.859Z,11.55
2022-08-14T18:52:37.481Z,9.18
2022-08-14T18:57:08.975Z,8.80
2022-08-14T19:01:29.866Z,10.80
2022-08-14T19:05:48.326Z,8.32
2022-08-14T19:10:08.847Z,8.27
2022-08-14T19:14:46.953Z,8.57
2022-08-14T19:19:07.058Z,9.75
2022-08-14T19:23:40.650Z,8.43
2022-08-14T19:28:31.066Z,9.13
2022-08-14T19:32:56.031Z,8.40
2022-08-14T19:37:54.077Z,8.85
2022-08-14T19:42:14.303Z,8.50
2022-08-14T19:47:00.052Z,9.13
2022-08-14T19:51:22.270Z,11.25
2022-08-14T19:55:45.879Z,9.55
2022-08-14T20:00:29.210Z,12.40
2022-08-14T20:04:57.880Z,19.50
2022-08-14T20:11:11.171Z,127.85
2022-08-14T20:13:57.857Z,19.27
2022-08-14T20:18:48.842Z,10.80
2022-08-14T20:23:11.867Z,13.02
2022-08-14T20:27:33.615Z,10.25
2022-08-14T20:31:53.607Z,11.70
2022-08-14T20:36:15.321Z,12.35
2022-08-14T20:40:50.263Z,11.88
2022-08-14T20:45:24.106Z,11.35
2022-08-14T20:49:41.960Z,13.00
2022-08-14T20:54:05.343Z,10.93
2022-08-14T20:58:43.943Z,11.93
2022-08-14T21:03:28.957Z,11.30
2022-08-14T21:07:51.215Z,12.07
2022-08-14T21:12:33.885Z,12.15
2022-08-14T21:16:58.207Z,12.90
2022-08-14T21:21:22.047Z,11.70
2022-08-14T21:25:40.344Z,11.55
2022-08-14T21:29:59.742Z,11.90
2022-08-14T21:34:27.479Z,11.73
2022-08-14T21:38:49.712Z,12.50
2022-08-14T21:43:17.425Z,12.02
2022-08-14T21:47:36.357Z,12.38
2022-08-14T21:52:49.674Z,12.10
2022-08-14T21:56:57.604Z,13.65
2022-08-14T22:01:15.126Z,12.48
2022-08-14T22:05:32.709Z,11.10
2022-08-14T22:09:55.040Z,12.90
2022-08-14T22:14:25.414Z,12.05
2022-08-14T22:18:46.485Z,13.05
2022-08-14T22:23:08.526Z,13.93
2022-08-14T22:27:25.694Z,13.45
2022-08-14T22:31:44.013Z,13.50
2022-08-14T22:36:26.257Z,13.05
2022-08-14T22:41:03.508Z,12.90
2022-08-14T22:45:23.809Z,14.65
2022-08-14T22:50:30.033Z,12.70
2022-08-14T22:54:52.502Z,12.93
2022-08-14T22:59:02.230Z,14.80
2022-08-14T23:03:19.716Z,12.73
2022-08-14T23:08:56.659Z,11.90
2022-08-14T23:12:27.642Z,12.82
2022-08-14T23:16:48.416Z,13.30
2022-08-14T23:21:14.266Z,12.80
2022-08-14T23:25:58.767Z,13.05
2022-08-14T23:30:34.261Z,14.07
2022-08-14T23:34:54.249Z,13.50
2022-08-14T23:39:19.346Z,16.70
2022-08-14T23:43:42.395Z,12.98
2022-08-14T23:48:01.090Z,13.80
2022-08-14T23:52:51.309Z,13.70
2022-08-14T23:56:59.943Z,12.85
